sensor_id;sensor_type;location;lat;lon;timestamp;temperature;humidity
5802;DHT22;2927;49.366;8.530;2023-05-24T00:01:36;12.80;99.90
5802;DHT22;2927;49.366;8.530;2023-05-24T00:04:02;12.80;99.90
5802;DHT22;2927;49.366;8.530;2023-05-24T00:06:28;12.80;99.90
5802;DHT22;2927;49.366;8.530;2023-05-24T00:08:54;12.70;99.90
5802;DHT22;2927;49.366;8.530;2023-05-24T00:11:20;12.70;99.90
5802;DHT22;2927;49.366;8.530;2023-05-24T00:13:47;12.70;99.90
5802;DHT22;2927;49.366;8.530;2023-05-24T00:16:13;12.60;99.90
5802;DHT22;2927;49.366;8.530;2023-05-24T00:18:38;12.60;99.90
5802;DHT22;2927;49.366;8.530;2023-05-24T00:21:06;12.50;99.90
5802;DHT22;2927;49.366;8.530;2023-05-24T00:23:33;12.50;99.90
5802;DHT22;2927;49.366;8.530;2023-05-24T00:25:59;12.50;99.90
5802;DHT22;2927;49.366;8.530;2023-05-24T00:28:26;12.50;99.90
5802;DHT22;2927;49.366;8.530;2023-05-24T00:30:51;12.40;99.90
5802;DHT22;2927;49.366;8.530;2023-05-24T00:33:17;12.40;99.90
5802;DHT22;2927;49.366;8.530;2023-05-24T00:35:42;12.40;99.90
5802;DHT22;2927;49.366;8.530;2023-05-24T00:38:08;12.30;99.90
5802;DHT22;2927;49.366;8.530;2023-05-24T00:40:34;12.30;99.90
5802;DHT22;2927;49.366;8.530;2023-05-24T00:43:00;12.20;99.90
5802;DHT22;2927;49.366;8.530;2023-05-24T00:45:25;12.20;99.90
5802;DHT22;2927;49.366;8.530;2023-05-24T00:47:51;12.20;99.90
5802;DHT22;2927;49.366;8.530;2023-05-24T00:50:17;12.20;1.00
5802;DHT22;2927;49.366;8.530;2023-05-24T00:52:44;12.10;1.00
5802;DHT22;2927;49.366;8.530;2023-05-24T00:55:11;12.10;1.00
5802;DHT22;2927;49.366;8.530;2023-05-24T00:57:37;12.10;1.00
5802;DHT22;2927;49.366;8.530;2023-05-24T01:00:05;12.10;1.00
5802;DHT22;2927;49.366;8.530;2023-05-24T01:02:32;12.10;99.90
5802;DHT22;2927;49.366;8.530;2023-05-24T01:04:57;12.00;1.00
5802;DHT22;2927;49.366;8.530;2023-05-24T01:10:07;12.00;1.00
5802;DHT22;2927;49.366;8.530;2023-05-24T01:18:23;11.90;99.90
5802;DHT22;2927;49.366;8.530;2023-05-24T01:21:54;11.80;99.90
5802;DHT22;2927;49.366;8.530;2023-05-24T01:23:46;11.80;99.90
5802;DHT22;2927;49.366;8.530;2023-05-24T01:28:51;11.80;1.00
5802;DHT22;2927;49.366;8.530;2023-05-24T01:31:19;11.70;99.90
5802;DHT22;2927;49.366;8.530;2023-05-24T01:33:44;11.70;1.00
5802;DHT22;2927;49.366;8.530;2023-05-24T01:36:10;11.80;99.90
5802;DHT22;2927;49.366;8.530;2023-05-24T01:38:37;11.70;99.90
5802;DHT22;2927;49.366;8.530;2023-05-24T01:41:18;11.80;99.90
5802;DHT22;2927;49.366;8.530;2023-05-24T01:43:54;11.80;99.90
5802;DHT22;2927;49.366;8.530;2023-05-24T01:46:28;11.80;99.90
5802;DHT22;2927;49.366;8.530;2023-05-24T01:49:17;11.90;99.90
5802;DHT22;2927;49.366;8.530;2023-05-24T01:51:49;11.90;99.90
5802;DHT22;2927;49.366;8.530;2023-05-24T01:54:19;11.80;99.90
5802;DHT22;2927;49.366;8.530;2023-05-24T01:56:47;11.80;99.90
5802;DHT22;2927;49.366;8.530;2023-05-24T01:59:14;11.80;99.90
5802;DHT22;2927;49.366;8.530;2023-05-24T02:01:39;11.80;99.90
5802;DHT22;2927;49.366;8.530;2023-05-24T02:04:06;11.70;99.90
5802;DHT22;2927;49.366;8.530;2023-05-24T02:06:31;11.70;99.90
5802;DHT22;2927;49.366;8.530;2023-05-24T02:08:57;11.70;99.90
5802;DHT22;2927;49.366;8.530;2023-05-24T02:11:22;11.70;99.90
5802;DHT22;2927;49.366;8.530;2023-05-24T02:13:48;11.60;99.90
5802;DHT22;2927;49.366;8.530;2023-05-24T02:16:13;11.60;99.90
5802;DHT22;2927;49.366;8.530;2023-05-24T02:18:39;11.50;99.90
5802;DHT22;2927;49.366;8.530;2023-05-24T02:21:04;11.50;99.90
5802;DHT22;2927;49.366;8.530;2023-05-24T02:23:30;11.50;99.90
5802;DHT22;2927;49.366;8.530;2023-05-24T02:25:56;11.50;99.90
5802;DHT22;2927;49.366;8.530;2023-05-24T02:28:21;11.40;99.90
5802;DHT22;2927;49.366;8.530;2023-05-24T02:30:47;11.40;99.90
5802;DHT22;2927;49.366;8.530;2023-05-24T02:33:14;11.40;99.90
5802;DHT22;2927;49.366;8.530;2023-05-24T02:35:39;11.40;99.90
5802;DHT22;2927;49.366;8.530;2023-05-24T02:38:06;11.40;99.90
5802;DHT22;2927;49.366;8.530;2023-05-24T02:40:31;11.40;99.90
5802;DHT22;2927;49.366;8.530;2023-05-24T02:42:57;11.30;99.90
5802;DHT22;2927;49.366;8.530;2023-05-24T02:45:23;11.40;99.90
5802;DHT22;2927;49.366;8.530;2023-05-24T02:47:49;11.30;99.90
5802;DHT22;2927;49.366;8.530;2023-05-24T02:50:14;11.30;99.90
5802;DHT22;2927;49.366;8.530;2023-05-24T02:52:40;11.30;99.90
5802;DHT22;2927;49.366;8.530;2023-05-24T02:55:06;11.30;99.90
5802;DHT22;2927;49.366;8.530;2023-05-24T02:57:31;11.30;99.90
5802;DHT22;2927;49.366;8.530;2023-05-24T02:59:58;11.20;99.90
5802;DHT22;2927;49.366;8.530;2023-05-24T03:02:24;11.20;99.90
5802;DHT22;2927;49.366;8.530;2023-05-24T03:04:52;11.20;99.90
5802;DHT22;2927;49.366;8.530;2023-05-24T03:07:18;11.20;99.90
5802;DHT22;2927;49.366;8.530;2023-05-24T03:09:43;11.20;99.90
5802;DHT22;2927;49.366;8.530;2023-05-24T03:12:09;11.20;99.90
5802;DHT22;2927;49.366;8.530;2023-05-24T03:14:34;11.20;99.90
5802;DHT22;2927;49.366;8.530;2023-05-24T03:17:00;11.10;99.90
5802;DHT22;2927;49.366;8.530;2023-05-24T03:19:26;11.10;99.90
5802;DHT22;2927;49.366;8.530;2023-05-24T03:21:52;11.10;99.90
5802;DHT22;2927;49.366;8.530;2023-05-24T03:24:17;11.10;99.90
5802;DHT22;2927;49.366;8.530;2023-05-24T03:26:43;11.10;1.00
5802;DHT22;2927;49.366;8.530;2023-05-24T03:29:09;11.00;1.00
5802;DHT22;2927;49.366;8.530;2023-05-24T03:31:35;11.00;1.00
5802;DHT22;2927;49.366;8.530;2023-05-24T03:34:00;11.00;1.00
5802;DHT22;2927;49.366;8.530;2023-05-24T03:36:26;11.00;1.00
5802;DHT22;2927;49.366;8.530;2023-05-24T03:38:53;11.00;1.00
5802;DHT22;2927;49.366;8.530;2023-05-24T03:41:19;11.00;1.00
5802;DHT22;2927;49.366;8.530;2023-05-24T03:43:45;11.00;1.00
5802;DHT22;2927;49.366;8.530;2023-05-24T03:46:10;11.00;1.00
5802;DHT22;2927;49.366;8.530;2023-05-24T03:48:36;11.00;1.00
5802;DHT22;2927;49.366;8.530;2023-05-24T03:51:02;11.00;1.00
5802;DHT22;2927;49.366;8.530;2023-05-24T03:53:28;11.00;1.00
5802;DHT22;2927;49.366;8.530;2023-05-24T03:55:54;11.00;1.00
5802;DHT22;2927;49.366;8.530;2023-05-24T03:58:20;11.00;1.00
5802;DHT22;2927;49.366;8.530;2023-05-24T04:00:46;11.00;1.00
5802;DHT22;2927;49.366;8.530;2023-05-24T04:03:11;11.00;1.00
5802;DHT22;2927;49.366;8.530;2023-05-24T04:05:37;11.00;1.00
5802;DHT22;2927;49.366;8.530;2023-05-24T04:08:02;11.00;1.00
5802;DHT22;2927;49.366;8.530;2023-05-24T04:10:28;11.00;1.00
5802;DHT22;2927;49.366;8.530;2023-05-24T04:12:54;10.90;1.00
5802;DHT22;2927;49.366;8.530;2023-05-24T04:15:21;10.90;1.00
5802;DHT22;2927;49.366;8.530;2023-05-24T04:17:48;10.90;1.00
5802;DHT22;2927;49.366;8.530;2023-05-24T04:20:19;10.90;1.00
5802;DHT22;2927;49.366;8.530;2023-05-24T04:22:45;10.90;1.00
5802;DHT22;2927;49.366;8.530;2023-05-24T04:25:10;10.90;1.00
5802;DHT22;2927;49.366;8.530;2023-05-24T04:27:36;10.90;1.00
5802;DHT22;2927;49.366;8.530;2023-05-24T04:30:02;10.90;1.00
5802;DHT22;2927;49.366;8.530;2023-05-24T04:32:27;10.90;1.00
5802;DHT22;2927;49.366;8.530;2023-05-24T04:34:54;10.90;1.00
5802;DHT22;2927;49.366;8.530;2023-05-24T04:37:20;11.00;1.00
5802;DHT22;2927;49.366;8.530;2023-05-24T04:39:46;11.00;1.00
5802;DHT22;2927;49.366;8.530;2023-05-24T04:42:12;11.10;1.00
5802;DHT22;2927;49.366;8.530;2023-05-24T04:44:41;11.20;1.00
5802;DHT22;2927;49.366;8.530;2023-05-24T04:47:07;11.30;99.90
5802;DHT22;2927;49.366;8.530;2023-05-24T04:49:33;11.40;99.90
5802;DHT22;2927;49.366;8.530;2023-05-24T04:51:58;11.50;1.00
5802;DHT22;2927;49.366;8.530;2023-05-24T04:54:24;11.50;1.00
5802;DHT22;2927;49.366;8.530;2023-05-24T04:56:49;11.50;1.00
5802;DHT22;2927;49.366;8.530;2023-05-24T04:59:15;11.60;1.00
5802;DHT22;2927;49.366;8.530;2023-05-24T05:01:41;11.50;1.00
5802;DHT22;2927;49.366;8.530;2023-05-24T05:04:06;11.60;1.00
5802;DHT22;2927;49.366;8.530;2023-05-24T05:06:32;11.60;1.00
5802;DHT22;2927;49.366;8.530;2023-05-24T05:09:03;11.60;1.00
5802;DHT22;2927;49.366;8.530;2023-05-24T05:11:29;11.50;1.00
5802;DHT22;2927;49.366;8.530;2023-05-24T05:13:55;11.50;1.00
5802;DHT22;2927;49.366;8.530;2023-05-24T05:16:20;11.50;1.00
5802;DHT22;2927;49.366;8.530;2023-05-24T05:18:46;11.60;1.00
5802;DHT22;2927;49.366;8.530;2023-05-24T05:21:11;11.70;1.00
5802;DHT22;2927;49.366;8.530;2023-05-24T05:23:37;11.80;1.00
5802;DHT22;2927;49.366;8.530;2023-05-24T05:26:04;11.90;99.90
5802;DHT22;2927;49.366;8.530;2023-05-24T05:28:31;11.80;1.00
5802;DHT22;2927;49.366;8.530;2023-05-24T05:30:57;11.80;99.90
5802;DHT22;2927;49.366;8.530;2023-05-24T05:33:23;11.80;1.00
5802;DHT22;2927;49.366;8.530;2023-05-24T05:35:48;11.70;1.00
5802;DHT22;2927;49.366;8.530;2023-05-24T05:38:14;11.70;1.00
5802;DHT22;2927;49.366;8.530;2023-05-24T05:40:40;12.00;99.90
5802;DHT22;2927;49.366;8.530;2023-05-24T05:43:05;12.10;99.90
5802;DHT22;2927;49.366;8.530;2023-05-24T05:45:32;12.20;99.90
5802;DHT22;2927;49.366;8.530;2023-05-24T05:47:58;12.40;99.90
5802;DHT22;2927;49.366;8.530;2023-05-24T05:50:23;13.00;1.00
5802;DHT22;2927;49.366;8.530;2023-05-24T05:52:49;13.90;1.00
5802;DHT22;2927;49.366;8.530;2023-05-24T05:55:14;15.30;1.00
5802;DHT22;2927;49.366;8.530;2023-05-24T05:57:40;15.20;99.90
5802;DHT22;2927;49.366;8.530;2023-05-24T06:00:07;14.60;99.90
5802;DHT22;2927;49.366;8.530;2023-05-24T06:02:33;13.70;1.00
5802;DHT22;2927;49.366;8.530;2023-05-24T06:04:59;13.50;1.00
5802;DHT22;2927;49.366;8.530;2023-05-24T06:07:25;13.60;1.00
5802;DHT22;2927;49.366;8.530;2023-05-24T06:09:50;13.60;1.00
5802;DHT22;2927;49.366;8.530;2023-05-24T06:12:16;13.40;1.00
5802;DHT22;2927;49.366;8.530;2023-05-24T06:14:41;13.70;1.00
5802;DHT22;2927;49.366;8.530;2023-05-24T06:17:07;15.40;99.90
5802;DHT22;2927;49.366;8.530;2023-05-24T06:19:33;15.50;99.90
5802;DHT22;2927;49.366;8.530;2023-05-24T06:22:00;15.90;99.90
5802;DHT22;2927;49.366;8.530;2023-05-24T06:24:26;17.30;99.90
5802;DHT22;2927;49.366;8.530;2023-05-24T06:26:53;17.60;99.90
5802;DHT22;2927;49.366;8.530;2023-05-24T06:29:19;17.80;99.90
5802;DHT22;2927;49.366;8.530;2023-05-24T06:31:46;17.20;99.90
5802;DHT22;2927;49.366;8.530;2023-05-24T06:34:14;17.40;99.90
5802;DHT22;2927;49.366;8.530;2023-05-24T06:36:45;18.00;99.90
5802;DHT22;2927;49.366;8.530;2023-05-24T06:39:13;18.80;95.60
5802;DHT22;2927;49.366;8.530;2023-05-24T06:41:39;19.60;44.10
5802;DHT22;2927;49.366;8.530;2023-05-24T06:44:05;20.20;14.20
5802;DHT22;2927;49.366;8.530;2023-05-24T06:46:31;20.30;1.10
5802;DHT22;2927;49.366;8.530;2023-05-24T06:48:57;20.70;1.00
5802;DHT22;2927;49.366;8.530;2023-05-24T06:51:22;21.60;1.00
5802;DHT22;2927;49.366;8.530;2023-05-24T06:53:48;21.60;1.00
5802;DHT22;2927;49.366;8.530;2023-05-24T06:56:14;22.80;1.00
5802;DHT22;2927;49.366;8.530;2023-05-24T06:58:39;23.30;1.00
5802;DHT22;2927;49.366;8.530;2023-05-24T07:01:06;23.60;1.00
5802;DHT22;2927;49.366;8.530;2023-05-24T07:03:33;24.20;1.00
5802;DHT22;2927;49.366;8.530;2023-05-24T07:05:59;23.50;1.00
5802;DHT22;2927;49.366;8.530;2023-05-24T07:08:25;23.20;1.00
5802;DHT22;2927;49.366;8.530;2023-05-24T07:10:51;22.40;1.00
5802;DHT22;2927;49.366;8.530;2023-05-24T07:13:17;22.60;1.00
5802;DHT22;2927;49.366;8.530;2023-05-24T07:15:44;22.90;1.00
5802;DHT22;2927;49.366;8.530;2023-05-24T07:18:10;22.70;1.00
5802;DHT22;2927;49.366;8.530;2023-05-24T07:20:35;22.70;1.00
5802;DHT22;2927;49.366;8.530;2023-05-24T07:23:01;22.70;1.00
5802;DHT22;2927;49.366;8.530;2023-05-24T07:25:28;22.10;1.00
5802;DHT22;2927;49.366;8.530;2023-05-24T07:27:53;22.30;1.00
5802;DHT22;2927;49.366;8.530;2023-05-24T07:30:19;22.40;1.00
5802;DHT22;2927;49.366;8.530;2023-05-24T07:32:45;23.20;1.00
5802;DHT22;2927;49.366;8.530;2023-05-24T07:35:11;23.00;1.00
5802;DHT22;2927;49.366;8.530;2023-05-24T07:37:40;22.40;1.00
5802;DHT22;2927;49.366;8.530;2023-05-24T07:40:07;23.70;1.00
5802;DHT22;2927;49.366;8.530;2023-05-24T07:42:35;23.80;1.00
5802;DHT22;2927;49.366;8.530;2023-05-24T07:45:01;23.50;1.00
5802;DHT22;2927;49.366;8.530;2023-05-24T07:47:27;23.00;1.00
5802;DHT22;2927;49.366;8.530;2023-05-24T07:49:52;22.60;1.00
5802;DHT22;2927;49.366;8.530;2023-05-24T07:52:18;22.60;1.00
5802;DHT22;2927;49.366;8.530;2023-05-24T07:54:44;22.50;1.00
5802;DHT22;2927;49.366;8.530;2023-05-24T07:57:10;21.70;1.00
5802;DHT22;2927;49.366;8.530;2023-05-24T07:59:36;22.20;1.00
5802;DHT22;2927;49.366;8.530;2023-05-24T08:02:02;23.50;1.00
5802;DHT22;2927;49.366;8.530;2023-05-24T08:04:30;23.40;1.00
5802;DHT22;2927;49.366;8.530;2023-05-24T08:06:56;23.80;1.00
5802;DHT22;2927;49.366;8.530;2023-05-24T08:09:22;23.30;1.00
5802;DHT22;2927;49.366;8.530;2023-05-24T08:11:48;22.60;1.00
5802;DHT22;2927;49.366;8.530;2023-05-24T08:14:13;23.10;1.00
5802;DHT22;2927;49.366;8.530;2023-05-24T08:16:39;24.10;1.00
5802;DHT22;2927;49.366;8.530;2023-05-24T08:19:04;24.90;1.00
5802;DHT22;2927;49.366;8.530;2023-05-24T08:21:31;25.30;1.00
5802;DHT22;2927;49.366;8.530;2023-05-24T08:23:58;25.10;1.00
5802;DHT22;2927;49.366;8.530;2023-05-24T08:26:25;25.10;1.00
5802;DHT22;2927;49.366;8.530;2023-05-24T08:28:50;24.70;1.00
5802;DHT22;2927;49.366;8.530;2023-05-24T08:31:17;25.20;1.00
5802;DHT22;2927;49.366;8.530;2023-05-24T08:33:42;25.70;1.00
5802;DHT22;2927;49.366;8.530;2023-05-24T08:36:08;25.40;1.00
5802;DHT22;2927;49.366;8.530;2023-05-24T08:38:33;25.00;1.00
5802;DHT22;2927;49.366;8.530;2023-05-24T08:40:59;24.80;1.00
5802;DHT22;2927;49.366;8.530;2023-05-24T08:43:27;25.50;1.00
5802;DHT22;2927;49.366;8.530;2023-05-24T08:45:56;25.40;1.00
5802;DHT22;2927;49.366;8.530;2023-05-24T08:48:24;25.30;1.00
5802;DHT22;2927;49.366;8.530;2023-05-24T08:50:50;25.20;1.00
5802;DHT22;2927;49.366;8.530;2023-05-24T08:53:17;25.60;1.00
5802;DHT22;2927;49.366;8.530;2023-05-24T08:55:43;24.20;1.00
5802;DHT22;2927;49.366;8.530;2023-05-24T08:58:10;24.80;1.00
5802;DHT22;2927;49.366;8.530;2023-05-24T09:00:35;24.20;1.00
5802;DHT22;2927;49.366;8.530;2023-05-24T09:03:01;24.00;1.00
5802;DHT22;2927;49.366;8.530;2023-05-24T09:05:29;24.00;1.00
5802;DHT22;2927;49.366;8.530;2023-05-24T09:07:55;25.00;1.00
5802;DHT22;2927;49.366;8.530;2023-05-24T09:10:24;24.90;1.00
5802;DHT22;2927;49.366;8.530;2023-05-24T09:12:55;25.30;1.00
5802;DHT22;2927;49.366;8.530;2023-05-24T09:15:22;25.80;1.00
5802;DHT22;2927;49.366;8.530;2023-05-24T09:17:47;25.90;1.00
5802;DHT22;2927;49.366;8.530;2023-05-24T09:20:13;25.60;1.00
5802;DHT22;2927;49.366;8.530;2023-05-24T09:22:41;25.60;1.00
5802;DHT22;2927;49.366;8.530;2023-05-24T09:25:07;25.80;1.00
5802;DHT22;2927;49.366;8.530;2023-05-24T09:27:34;26.20;1.00
5802;DHT22;2927;49.366;8.530;2023-05-24T09:30:01;25.70;1.00
5802;DHT22;2927;49.366;8.530;2023-05-24T09:32:29;26.00;1.00
5802;DHT22;2927;49.366;8.530;2023-05-24T09:34:57;25.10;1.00
5802;DHT22;2927;49.366;8.530;2023-05-24T09:37:24;24.50;1.00
5802;DHT22;2927;49.366;8.530;2023-05-24T09:39:54;24.80;1.00
5802;DHT22;2927;49.366;8.530;2023-05-24T09:42:20;24.90;1.00
5802;DHT22;2927;49.366;8.530;2023-05-24T09:45:08;25.00;1.00
5802;DHT22;2927;49.366;8.530;2023-05-24T09:47:40;25.40;1.00
5802;DHT22;2927;49.366;8.530;2023-05-24T09:50:11;25.50;1.00
5802;DHT22;2927;49.366;8.530;2023-05-24T09:52:38;25.00;1.00
5802;DHT22;2927;49.366;8.530;2023-05-24T09:55:18;25.00;1.00
5802;DHT22;2927;49.366;8.530;2023-05-24T09:57:50;25.20;1.00
5802;DHT22;2927;49.366;8.530;2023-05-24T10:00:22;25.00;1.00
5802;DHT22;2927;49.366;8.530;2023-05-24T10:03:00;25.30;1.00
5802;DHT22;2927;49.366;8.530;2023-05-24T10:05:29;25.00;1.00
5802;DHT22;2927;49.366;8.530;2023-05-24T10:07:56;25.30;1.00
5802;DHT22;2927;49.366;8.530;2023-05-24T10:10:25;25.70;1.00
5802;DHT22;2927;49.366;8.530;2023-05-24T10:12:51;25.30;1.00
5802;DHT22;2927;49.366;8.530;2023-05-24T10:15:18;24.80;1.00
5802;DHT22;2927;49.366;8.530;2023-05-24T10:17:43;24.40;1.00
5802;DHT22;2927;49.366;8.530;2023-05-24T10:20:09;24.30;1.00
5802;DHT22;2927;49.366;8.530;2023-05-24T10:22:40;23.70;1.00
5802;DHT22;2927;49.366;8.530;2023-05-24T10:25:08;23.50;1.00
5802;DHT22;2927;49.366;8.530;2023-05-24T10:27:37;22.90;1.00
5802;DHT22;2927;49.366;8.530;2023-05-24T10:30:30;22.40;1.00
5802;DHT22;2927;49.366;8.530;2023-05-24T10:32:58;21.70;1.00
5802;DHT22;2927;49.366;8.530;2023-05-24T10:35:24;21.00;1.00
5802;DHT22;2927;49.366;8.530;2023-05-24T10:37:51;20.30;1.00
5802;DHT22;2927;49.366;8.530;2023-05-24T10:40:18;19.70;1.00
5802;DHT22;2927;49.366;8.530;2023-05-24T10:42:45;19.70;1.00
5802;DHT22;2927;49.366;8.530;2023-05-24T10:47:50;18.90;1.00
5802;DHT22;2927;49.366;8.530;2023-05-24T10:50:17;18.90;1.00
5802;DHT22;2927;49.366;8.530;2023-05-24T10:52:43;18.90;1.00
5802;DHT22;2927;49.366;8.530;2023-05-24T10:55:10;18.40;1.00
5802;DHT22;2927;49.366;8.530;2023-05-24T10:57:36;18.30;1.00
5802;DHT22;2927;49.366;8.530;2023-05-24T11:03:02;18.10;1.00
5802;DHT22;2927;49.366;8.530;2023-05-24T11:05:35;18.30;1.00
5802;DHT22;2927;49.366;8.530;2023-05-24T11:08:36;17.70;1.00
5802;DHT22;2927;49.366;8.530;2023-05-24T11:13:35;18.30;1.00
5802;DHT22;2927;49.366;8.530;2023-05-24T11:16:02;18.70;1.00
5802;DHT22;2927;49.366;8.530;2023-05-24T11:18:28;18.20;1.00
5802;DHT22;2927;49.366;8.530;2023-05-24T11:20:53;18.00;1.00
5802;DHT22;2927;49.366;8.530;2023-05-24T11:23:20;17.80;1.00
5802;DHT22;2927;49.366;8.530;2023-05-24T11:25:46;17.70;1.00
5802;DHT22;2927;49.366;8.530;2023-05-24T11:28:12;17.90;1.00
5802;DHT22;2927;49.366;8.530;2023-05-24T11:30:45;17.90;1.00
5802;DHT22;2927;49.366;8.530;2023-05-24T11:33:21;18.10;1.00
5802;DHT22;2927;49.366;8.530;2023-05-24T11:35:52;18.00;1.00
5802;DHT22;2927;49.366;8.530;2023-05-24T11:38:19;18.00;1.00
5802;DHT22;2927;49.366;8.530;2023-05-24T11:40:46;18.20;1.00
5802;DHT22;2927;49.366;8.530;2023-05-24T11:43:14;18.00;1.00
5802;DHT22;2927;49.366;8.530;2023-05-24T11:45:41;17.90;1.00
5802;DHT22;2927;49.366;8.530;2023-05-24T11:48:08;18.10;1.00
5802;DHT22;2927;49.366;8.530;2023-05-24T11:50:45;17.80;1.00
5802;DHT22;2927;49.366;8.530;2023-05-24T11:53:11;17.70;1.00
5802;DHT22;2927;49.366;8.530;2023-05-24T11:55:38;17.80;1.00
5802;DHT22;2927;49.366;8.530;2023-05-24T11:58:13;18.10;1.00
5802;DHT22;2927;49.366;8.530;2023-05-24T12:00:42;17.90;1.00
5802;DHT22;2927;49.366;8.530;2023-05-24T12:03:08;18.20;1.00
5802;DHT22;2927;49.366;8.530;2023-05-24T12:05:35;17.90;1.00
5802;DHT22;2927;49.366;8.530;2023-05-24T12:08:03;17.70;1.00
5802;DHT22;2927;49.366;8.530;2023-05-24T12:10:34;18.00;1.00
5802;DHT22;2927;49.366;8.530;2023-05-24T12:13:01;18.50;1.00
5802;DHT22;2927;49.366;8.530;2023-05-24T12:15:27;18.10;1.00
5802;DHT22;2927;49.366;8.530;2023-05-24T12:17:52;18.00;1.00
5802;DHT22;2927;49.366;8.530;2023-05-24T12:20:19;18.00;1.00
5802;DHT22;2927;49.366;8.530;2023-05-24T12:22:51;18.10;1.00
5802;DHT22;2927;49.366;8.530;2023-05-24T12:25:17;18.10;1.00
5802;DHT22;2927;49.366;8.530;2023-05-24T12:27:51;18.00;1.00
5802;DHT22;2927;49.366;8.530;2023-05-24T12:30:24;17.90;1.00
5802;DHT22;2927;49.366;8.530;2023-05-24T12:32:50;18.10;1.00
5802;DHT22;2927;49.366;8.530;2023-05-24T12:35:16;17.90;1.00
5802;DHT22;2927;49.366;8.530;2023-05-24T12:37:43;17.60;1.00
5802;DHT22;2927;49.366;8.530;2023-05-24T12:42:42;17.60;1.00
5802;DHT22;2927;49.366;8.530;2023-05-24T12:45:08;17.40;1.00
5802;DHT22;2927;49.366;8.530;2023-05-24T12:47:34;17.60;1.00
5802;DHT22;2927;49.366;8.530;2023-05-24T12:49:59;17.80;1.00
5802;DHT22;2927;49.366;8.530;2023-05-24T12:52:25;18.10;1.00
5802;DHT22;2927;49.366;8.530;2023-05-24T12:54:50;18.20;1.00
5802;DHT22;2927;49.366;8.530;2023-05-24T12:57:16;18.10;1.00
5802;DHT22;2927;49.366;8.530;2023-05-24T12:59:41;18.00;1.00
5802;DHT22;2927;49.366;8.530;2023-05-24T13:02:07;17.80;1.00
5802;DHT22;2927;49.366;8.530;2023-05-24T13:04:33;18.20;1.00
5802;DHT22;2927;49.366;8.530;2023-05-24T13:07:01;18.10;1.00
5802;DHT22;2927;49.366;8.530;2023-05-24T13:09:27;18.30;1.00
5802;DHT22;2927;49.366;8.530;2023-05-24T13:11:54;18.30;1.00
5802;DHT22;2927;49.366;8.530;2023-05-24T13:14:21;18.20;1.00
5802;DHT22;2927;49.366;8.530;2023-05-24T13:16:46;18.30;1.00
5802;DHT22;2927;49.366;8.530;2023-05-24T13:19:12;18.20;1.00
5802;DHT22;2927;49.366;8.530;2023-05-24T13:21:38;18.00;1.00
5802;DHT22;2927;49.366;8.530;2023-05-24T13:24:04;18.30;1.00
5802;DHT22;2927;49.366;8.530;2023-05-24T13:26:30;18.40;1.00
5802;DHT22;2927;49.366;8.530;2023-05-24T13:29:02;18.40;1.00
5802;DHT22;2927;49.366;8.530;2023-05-24T13:31:27;18.40;1.00
5802;DHT22;2927;49.366;8.530;2023-05-24T13:33:53;18.40;1.00
5802;DHT22;2927;49.366;8.530;2023-05-24T13:36:18;18.10;1.00
5802;DHT22;2927;49.366;8.530;2023-05-24T13:38:44;18.10;1.00
5802;DHT22;2927;49.366;8.530;2023-05-24T13:41:10;18.10;1.00
5802;DHT22;2927;49.366;8.530;2023-05-24T13:43:35;18.10;1.00
5802;DHT22;2927;49.366;8.530;2023-05-24T13:46:01;18.20;1.00
5802;DHT22;2927;49.366;8.530;2023-05-24T13:48:27;18.30;1.00
5802;DHT22;2927;49.366;8.530;2023-05-24T13:50:52;18.20;1.00
5802;DHT22;2927;49.366;8.530;2023-05-24T13:53:18;18.20;1.00
5802;DHT22;2927;49.366;8.530;2023-05-24T13:55:43;18.20;1.00
5802;DHT22;2927;49.366;8.530;2023-05-24T13:58:09;18.10;1.00
5802;DHT22;2927;49.366;8.530;2023-05-24T14:00:35;18.10;1.00
5802;DHT22;2927;49.366;8.530;2023-05-24T14:03:01;18.20;1.00
5802;DHT22;2927;49.366;8.530;2023-05-24T14:05:29;18.00;1.00
5802;DHT22;2927;49.366;8.530;2023-05-24T14:07:56;18.10;1.00
5802;DHT22;2927;49.366;8.530;2023-05-24T14:10:24;18.20;1.00
5802;DHT22;2927;49.366;8.530;2023-05-24T14:12:50;18.20;1.00
5802;DHT22;2927;49.366;8.530;2023-05-24T14:15:16;18.20;1.00
5802;DHT22;2927;49.366;8.530;2023-05-24T14:17:41;18.40;1.00
5802;DHT22;2927;49.366;8.530;2023-05-24T14:20:07;18.40;1.00
5802;DHT22;2927;49.366;8.530;2023-05-24T14:22:33;18.50;1.00
5802;DHT22;2927;49.366;8.530;2023-05-24T14:25:00;18.60;1.00
5802;DHT22;2927;49.366;8.530;2023-05-24T14:27:25;18.40;1.00
5802;DHT22;2927;49.366;8.530;2023-05-24T14:29:51;18.40;1.00
5802;DHT22;2927;49.366;8.530;2023-05-24T14:32:16;18.40;1.00
5802;DHT22;2927;49.366;8.530;2023-05-24T14:34:44;18.20;1.00
5802;DHT22;2927;49.366;8.530;2023-05-24T14:37:09;18.20;1.00
5802;DHT22;2927;49.366;8.530;2023-05-24T14:39:35;18.00;1.00
5802;DHT22;2927;49.366;8.530;2023-05-24T14:42:00;17.90;1.00
5802;DHT22;2927;49.366;8.530;2023-05-24T14:44:26;18.20;1.00
5802;DHT22;2927;49.366;8.530;2023-05-24T14:46:52;18.30;1.00
5802;DHT22;2927;49.366;8.530;2023-05-24T14:49:18;18.50;1.00
5802;DHT22;2927;49.366;8.530;2023-05-24T14:51:46;18.50;1.00
5802;DHT22;2927;49.366;8.530;2023-05-24T14:54:13;18.20;1.00
5802;DHT22;2927;49.366;8.530;2023-05-24T14:56:38;18.10;1.00
5802;DHT22;2927;49.366;8.530;2023-05-24T14:59:04;18.10;1.00
5802;DHT22;2927;49.366;8.530;2023-05-24T15:01:30;18.20;1.00
5802;DHT22;2927;49.366;8.530;2023-05-24T15:03:55;18.20;1.00
5802;DHT22;2927;49.366;8.530;2023-05-24T15:06:21;18.40;1.00
5802;DHT22;2927;49.366;8.530;2023-05-24T15:08:47;18.30;1.00
5802;DHT22;2927;49.366;8.530;2023-05-24T15:11:12;18.00;1.00
5802;DHT22;2927;49.366;8.530;2023-05-24T15:13:41;17.90;1.00
5802;DHT22;2927;49.366;8.530;2023-05-24T15:16:07;18.00;1.00
5802;DHT22;2927;49.366;8.530;2023-05-24T15:18:33;18.00;1.00
5802;DHT22;2927;49.366;8.530;2023-05-24T15:20:59;17.90;1.00
5802;DHT22;2927;49.366;8.530;2023-05-24T15:23:24;18.10;1.00
5802;DHT22;2927;49.366;8.530;2023-05-24T15:25:50;18.10;1.00
5802;DHT22;2927;49.366;8.530;2023-05-24T15:28:16;18.00;1.00
5802;DHT22;2927;49.366;8.530;2023-05-24T15:30:43;17.90;1.00
5802;DHT22;2927;49.366;8.530;2023-05-24T15:33:10;18.10;1.00
5802;DHT22;2927;49.366;8.530;2023-05-24T15:35:36;18.20;1.00
5802;DHT22;2927;49.366;8.530;2023-05-24T15:38:04;18.10;1.00
5802;DHT22;2927;49.366;8.530;2023-05-24T15:40:30;18.00;1.00
5802;DHT22;2927;49.366;8.530;2023-05-24T15:42:56;17.70;1.00
5802;DHT22;2927;49.366;8.530;2023-05-24T15:45:21;17.70;1.00
5802;DHT22;2927;49.366;8.530;2023-05-24T15:47:47;17.70;1.00
5802;DHT22;2927;49.366;8.530;2023-05-24T15:50:12;17.70;1.00
5802;DHT22;2927;49.366;8.530;2023-05-24T15:52:38;17.70;1.00
5802;DHT22;2927;49.366;8.530;2023-05-24T15:55:04;17.80;1.00
5802;DHT22;2927;49.366;8.530;2023-05-24T15:57:30;17.90;1.00
5802;DHT22;2927;49.366;8.530;2023-05-24T15:59:55;18.10;1.00
5802;DHT22;2927;49.366;8.530;2023-05-24T16:02:21;18.30;1.00
5802;DHT22;2927;49.366;8.530;2023-05-24T16:04:47;18.40;1.00
5802;DHT22;2927;49.366;8.530;2023-05-24T16:07:12;18.50;1.00
5802;DHT22;2927;49.366;8.530;2023-05-24T16:09:38;18.40;1.00
5802;DHT22;2927;49.366;8.530;2023-05-24T16:12:04;18.20;1.00
5802;DHT22;2927;49.366;8.530;2023-05-24T16:14:29;18.20;1.00
5802;DHT22;2927;49.366;8.530;2023-05-24T16:16:55;18.30;1.00
5802;DHT22;2927;49.366;8.530;2023-05-24T16:19:20;18.40;1.00
5802;DHT22;2927;49.366;8.530;2023-05-24T16:21:47;18.30;1.00
5802;DHT22;2927;49.366;8.530;2023-05-24T16:24:12;18.20;1.00
5802;DHT22;2927;49.366;8.530;2023-05-24T16:26:38;18.20;1.00
5802;DHT22;2927;49.366;8.530;2023-05-24T16:29:03;18.30;1.00
5802;DHT22;2927;49.366;8.530;2023-05-24T16:31:31;18.10;1.00
5802;DHT22;2927;49.366;8.530;2023-05-24T16:33:56;17.90;1.00